Time;durP1;ratioP1;P1;durP2;ratioP2;P2;SDS_P1;SDS_P2;PMS_P1;PMS_P2;Temp;Humidity;BMP_temperature;BMP_pressure;BME280_temperature;BME280_humidity;BME280_pressure;Samples;Min_cycle;Max_cycle;Signal;HPM_P1;HPM_P2
2021/12/26 00:00:33;;;;;;;96.22;60.95;;;5.20;99.90;;;;;;5038321;28;20104;-81
2021/12/26 00:03:00;;;;;;;143.48;61.35;;;5.20;99.90;;;;;;5038466;28;20021;-83
2021/12/26 00:05:27;;;;;;;126.25;70.68;;;5.10;99.90;;;;;;5033415;28;20034;-83
2021/12/26 00:07:53;;;;;;;112.72;65.32;;;5.10;99.90;;;;;;5017312;28;20088;-83
2021/12/26 00:10:21;;;;;;;108.18;62.58;;;5.10;99.90;;;;;;5018549;28;20406;-83
2021/12/26 00:12:48;;;;;;;115.68;61.67;;;5.20;99.90;;;;;;5016724;28;20022;-83
2021/12/26 00:15:14;;;;;;;103.40;58.08;;;5.10;99.90;;;;;;5017124;28;20026;-82
2021/12/26 00:17:41;;;;;;;98.80;58.85;;;5.10;99.90;;;;;;5017218;28;20037;-83
2021/12/26 00:20:08;;;;;;;104.30;56.90;;;5.20;99.90;;;;;;5018588;28;20033;-82
2021/12/26 00:22:34;;;;;;;106.72;56.50;;;5.20;99.90;;;;;;5018267;28;20024;-83
2021/12/26 00:25:01;;;;;;;101.95;47.97;;;5.20;99.90;;;;;;5018314;28;20025;-83
2021/12/26 00:27:27;;;;;;;104.82;52.20;;;5.20;99.90;;;;;;5018021;28;20097;-82
2021/12/26 00:29:53;;;;;;;100.57;48.95;;;5.20;99.90;;;;;;5018211;28;20386;-83
2021/12/26 00:32:19;;;;;;;88.88;43.90;;;5.20;99.90;;;;;;5018327;28;20018;-82
2021/12/26 00:34:45;;;;;;;82.95;42.30;;;5.20;99.90;;;;;;5016544;28;20443;-82
2021/12/26 00:37:12;;;;;;;83.75;44.95;;;5.20;99.90;;;;;;5016776;28;20390;-82
2021/12/26 00:39:38;;;;;;;78.50;44.67;;;5.20;99.90;;;;;;5018053;28;20056;-82
2021/12/26 00:42:04;;;;;;;77.15;45.95;;;5.20;99.90;;;;;;5018169;28;20118;-82
2021/12/26 00:44:32;;;;;;;74.25;43.45;;;5.20;99.90;;;;;;5017864;28;20030;-82
2021/12/26 00:46:58;;;;;;;71.72;42.60;;;5.20;99.90;;;;;;5018111;28;20029;-82
2021/12/26 00:49:24;;;;;;;71.32;43.75;;;5.10;99.90;;;;;;5016673;28;20524;-82
2021/12/26 00:51:50;;;;;;;75.22;42.03;;;5.10;99.90;;;;;;5018182;28;20080;-81
2021/12/26 00:54:17;;;;;;;85.10;46.25;;;5.10;99.90;;;;;;5016360;28;20453;-81
2021/12/26 00:56:43;;;;;;;71.65;40.45;;;5.10;99.90;;;;;;5016248;28;20018;-81
2021/12/26 00:59:10;;;;;;;88.30;42.97;;;5.00;99.90;;;;;;5017718;28;20049;-81
2021/12/26 01:01:36;;;;;;;91.70;40.58;;;5.00;99.90;;;;;;5006490;28;20076;-81
2021/12/26 01:04:02;;;;;;;68.10;37.67;;;5.00;99.90;;;;;;5017703;28;20062;-81
2021/12/26 01:06:28;;;;;;;69.35;39.00;;;4.90;99.90;;;;;;5016697;28;20030;-81
2021/12/26 01:08:55;;;;;;;57.83;37.17;;;4.90;99.90;;;;;;5016030;28;20103;-81
2021/12/26 01:11:38;;;;;;;66.28;40.63;;;4.90;99.90;;;;;;5017255;28;20037;-81
2021/12/26 01:14:09;;;;;;;65.10;39.70;;;4.80;99.90;;;;;;5016226;28;20083;-81
2021/12/26 01:16:37;;;;;;;66.05;41.03;;;4.80;99.90;;;;;;5017597;28;20025;-82
2021/12/26 01:19:18;;;;;;;72.22;42.60;;;4.90;99.90;;;;;;5017283;28;20096;-82
2021/12/26 01:21:45;;;;;;;67.05;40.00;;;4.80;99.90;;;;;;5017597;28;20028;-82
2021/12/26 01:24:13;;;;;;;69.13;43.63;;;4.80;99.90;;;;;;5017303;28;20510;-81
2021/12/26 01:26:39;;;;;;;65.15;41.35;;;4.80;99.90;;;;;;5016734;28;20550;-80
2021/12/26 01:29:06;;;;;;;67.85;41.08;;;4.70;99.90;;;;;;5016092;28;20037;-81
2021/12/26 01:31:32;;;;;;;68.47;42.08;;;4.70;99.90;;;;;;5017352;28;20470;-81
2021/12/26 01:34:02;;;;;;;77.93;44.40;;;4.70;99.90;;;;;;5017575;28;20033;-81
2021/12/26 01:36:31;;;;;;;73.10;43.70;;;4.70;99.90;;;;;;5015911;28;20409;-80
2021/12/26 01:38:59;;;;;;;74.43;44.00;;;4.70;99.90;;;;;;5017574;28;20045;-81
2021/12/26 01:41:25;;;;;;;70.70;44.10;;;4.70;99.90;;;;;;5016806;28;20014;-81
2021/12/26 01:43:56;;;;;;;68.20;40.00;;;4.70;99.90;;;;;;5015999;28;20033;-81
2021/12/26 01:46:24;;;;;;;73.78;40.88;;;4.80;99.90;;;;;;5015782;28;20026;-81
2021/12/26 01:49:08;;;;;;;68.72;41.97;;;4.80;99.90;;;;;;5017310;28;20033;-81
2021/12/26 01:51:34;;;;;;;64.20;39.75;;;4.90;99.90;;;;;;5015785;28;20033;-81
2021/12/26 01:54:05;;;;;;;69.07;37.72;;;4.90;99.90;;;;;;5015841;28;20030;-81
2021/12/26 01:56:31;;;;;;;67.07;41.00;;;4.90;99.90;;;;;;5015635;28;20093;-81
2021/12/26 01:58:57;;;;;;;69.68;40.25;;;5.00;99.90;;;;;;5015760;28;20446;-81
2021/12/26 02:01:23;;;;;;;68.03;44.50;;;4.90;99.90;;;;;;5015652;28;20025;-81
2021/12/26 02:03:49;;;;;;;71.07;44.08;;;5.00;99.90;;;;;;5017169;28;20022;-81
2021/12/26 02:06:15;;;;;;;75.00;45.33;;;4.90;99.90;;;;;;5015707;28;20449;-81
2021/12/26 02:08:41;;;;;;;67.78;44.42;;;4.90;99.90;;;;;;5015562;28;20430;-81
2021/12/26 02:11:07;;;;;;;70.18;43.28;;;4.90;99.90;;;;;;5016574;28;20041;-81
2021/12/26 02:13:33;;;;;;;65.10;40.25;;;5.00;99.90;;;;;;5016970;28;20041;-82
2021/12/26 02:15:59;;;;;;;66.25;39.00;;;5.00;99.90;;;;;;5016799;28;20022;-82
2021/12/26 02:18:26;;;;;;;66.65;41.72;;;5.00;99.90;;;;;;5016926;28;20493;-81
2021/12/26 02:21:10;;;;;;;59.20;38.08;;;5.00;99.90;;;;;;5015878;28;20022;-81
2021/12/26 02:23:51;;;;;;;62.08;39.00;;;5.00;99.90;;;;;;5015509;28;20049;-82
2021/12/26 02:29:01;;;;;;;64.00;38.53;;;5.00;99.90;;;;;;5016831;28;20052;-81
2021/12/26 02:31:27;;;;;;;62.80;38.55;;;5.00;99.90;;;;;;5015440;28;20400;-81
2021/12/26 02:33:53;;;;;;;67.90;39.80;;;5.00;99.90;;;;;;5016709;28;20493;-81
2021/12/26 02:36:18;;;;;;;63.78;40.25;;;5.00;99.90;;;;;;5015313;28;20014;-81
2021/12/26 02:38:44;;;;;;;68.78;40.95;;;5.00;99.90;;;;;;5016780;28;20458;-81
2021/12/26 02:41:10;;;;;;;58.58;38.35;;;5.00;99.90;;;;;;5019985;28;20029;-81
2021/12/26 02:43:36;;;;;;;57.25;37.58;;;5.00;99.90;;;;;;5018705;28;20107;-81
2021/12/26 02:46:06;;;;;;;61.83;37.10;;;5.00;99.90;;;;;;5020156;28;20018;-80
2021/12/26 02:48:33;;;;;;;62.77;39.73;;;5.00;99.90;;;;;;5020073;28;20056;-80
2021/12/26 02:51:01;;;;;;;63.28;37.20;;;5.00;99.90;;;;;;5020282;28;20284;-81
2021/12/26 02:53:27;;;;;;;55.28;35.50;;;5.10;99.90;;;;;;5020269;28;20050;-81
2021/12/26 02:55:56;;;;;;;53.67;33.03;;;5.10;99.90;;;;;;5018620;28;20022;-81
2021/12/26 02:58:23;;;;;;;49.70;33.13;;;5.10;99.90;;;;;;5019651;28;20109;-81
2021/12/26 03:01:02;;;;;;;46.33;32.38;;;5.10;99.90;;;;;;5020012;28;20057;-81
2021/12/26 03:03:28;;;;;;;50.65;31.27;;;5.10;99.90;;;;;;5019989;28;20108;-81
2021/12/26 03:05:59;;;;;;;50.17;33.50;;;5.20;99.90;;;;;;5018473;28;20065;-81
2021/12/26 03:08:25;;;;;;;47.20;32.17;;;5.20;99.90;;;;;;5018340;28;20514;-81
2021/12/26 03:10:52;;;;;;;51.38;31.95;;;5.20;99.90;;;;;;5019633;28;20611;-82
2021/12/26 03:13:18;;;;;;;43.20;30.00;;;5.20;99.90;;;;;;5019329;28;20084;-81
2021/12/26 03:15:44;;;;;;;44.75;29.33;;;5.10;99.90;;;;;;5019449;28;20033;-81
2021/12/26 03:18:10;;;;;;;42.40;29.88;;;5.10;99.90;;;;;;5018337;28;20053;-81
2021/12/26 03:20:41;;;;;;;45.47;28.73;;;5.10;99.90;;;;;;5019299;28;20037;-81
2021/12/26 03:23:09;;;;;;;39.28;27.65;;;5.10;99.90;;;;;;5018197;28;20053;-81
2021/12/26 03:25:35;;;;;;;35.33;26.20;;;5.10;99.90;;;;;;5016724;28;20037;-82
2021/12/26 03:28:05;;;;;;;41.65;27.10;;;5.10;99.90;;;;;;5019284;28;20460;-81
2021/12/26 03:30:32;;;;;;;38.28;28.40;;;5.10;99.90;;;;;;5019271;28;20106;-81
2021/12/26 03:32:59;;;;;;;42.05;27.77;;;5.10;99.90;;;;;;5019355;28;20034;-81
2021/12/26 03:35:27;;;;;;;40.38;28.58;;;5.10;99.90;;;;;;5018964;28;20022;-81
2021/12/26 03:37:53;;;;;;;38.45;28.67;;;5.10;99.90;;;;;;5019259;28;20429;-81
2021/12/26 03:40:19;;;;;;;48.30;30.02;;;5.10;99.90;;;;;;5017987;28;20025;-81
2021/12/26 03:42:44;;;;;;;41.92;28.98;;;5.10;99.90;;;;;;5017451;28;20030;-81
2021/12/26 03:45:11;;;;;;;39.58;27.15;;;5.10;99.90;;;;;;5018966;28;20030;-81
2021/12/26 03:47:37;;;;;;;40.33;27.38;;;5.10;99.90;;;;;;5017749;28;20034;-82
2021/12/26 03:50:06;;;;;;;40.38;29.10;;;5.10;99.90;;;;;;5018550;28;20018;-82
2021/12/26 03:52:32;;;;;;;39.05;27.80;;;5.10;99.90;;;;;;5019262;28;20029;-81
2021/12/26 03:54:58;;;;;;;37.30;26.92;;;5.00;99.90;;;;;;5009915;28;20026;-81
2021/12/26 03:57:24;;;;;;;34.60;25.38;;;5.00;99.90;;;;;;5018614;28;20022;-81
2021/12/26 03:59:50;;;;;;;36.67;25.35;;;5.00;99.90;;;;;;5018660;28;20437;-81
2021/12/26 04:02:16;;;;;;;38.05;25.48;;;5.00;99.90;;;;;;5017419;28;20401;-81
2021/12/26 04:04:43;;;;;;;34.30;26.02;;;5.00;99.90;;;;;;5017333;28;20034;-81
2021/12/26 04:07:10;;;;;;;39.03;27.45;;;5.00;99.90;;;;;;5018681;28;20101;-81
2021/12/26 04:09:36;;;;;;;36.33;24.50;;;5.00;99.90;;;;;;5018593;28;20030;-82
2021/12/26 04:12:03;;;;;;;33.40;25.27;;;5.00;99.90;;;;;;5017018;28;20034;-81
2021/12/26 04:14:29;;;;;;;32.75;23.55;;;5.00;99.90;;;;;;5017245;28;20125;-81
2021/12/26 04:16:54;;;;;;;30.75;23.88;;;5.00;99.90;;;;;;5017198;28;20513;-81
2021/12/26 04:19:20;;;;;;;28.45;21.73;;;5.00;99.90;;;;;;5018442;28;20018;-82
2021/12/26 04:21:47;;;;;;;26.98;21.20;;;5.00;99.90;;;;;;5018505;28;20026;-81
2021/12/26 04:24:13;;;;;;;31.23;22.85;;;5.00;99.90;;;;;;5018333;28;20502;-81
2021/12/26 04:26:39;;;;;;;29.02;21.88;;;5.00;99.90;;;;;;5017033;28;20113;-81
2021/12/26 04:29:06;;;;;;;30.88;21.73;;;5.00;99.90;;;;;;5018267;28;20026;-82
2021/12/26 04:31:32;;;;;;;28.45;20.80;;;5.00;99.90;;;;;;5016957;28;20033;-81
2021/12/26 04:33:59;;;;;;;28.98;20.15;;;5.00;99.90;;;;;;5018316;28;20022;-81
2021/12/26 04:36:25;;;;;;;20.88;16.98;;;5.00;99.90;;;;;;5017993;28;20022;-81
2021/12/26 04:38:50;;;;;;;23.08;18.17;;;5.10;99.90;;;;;;5017907;28;20082;-81
2021/12/26 04:41:17;;;;;;;22.88;18.15;;;5.10;99.90;;;;;;5016449;28;20917;-81
2021/12/26 04:43:43;;;;;;;23.90;18.27;;;5.00;99.90;;;;;;5017943;28;20029;-81
2021/12/26 04:46:09;;;;;;;26.08;19.45;;;5.00;99.90;;;;;;5016711;28;20029;-81
2021/12/26 04:48:38;;;;;;;26.30;19.95;;;5.00;99.90;;;;;;5017836;28;20022;-81
2021/12/26 04:51:06;;;;;;;25.48;19.00;;;5.00;99.90;;;;;;5018066;28;20033;-81
2021/12/26 04:53:33;;;;;;;25.15;19.05;;;5.00;99.90;;;;;;5018177;28;20034;-81
2021/12/26 04:55:59;;;;;;;26.20;18.35;;;5.00;99.90;;;;;;5017388;28;20018;-82
2021/12/26 04:58:25;;;;;;;21.95;17.42;;;5.00;99.90;;;;;;5017844;28;20021;-81
2021/12/26 05:00:51;;;;;;;19.30;16.15;;;4.90;99.90;;;;;;5017538;28;20025;-81
2021/12/26 05:03:17;;;;;;;19.50;15.98;;;4.90;99.90;;;;;;5017145;28;20072;-81
2021/12/26 05:05:44;;;;;;;23.60;14.52;;;4.90;99.90;;;;;;5017676;28;20033;-81
2021/12/26 05:08:10;;;;;;;21.02;15.63;;;4.90;99.90;;;;;;5016179;28;20486;-81
2021/12/26 05:10:36;;;;;;;23.10;15.98;;;4.90;99.90;;;;;;5017734;28;20061;-81
2021/12/26 05:13:03;;;;;;;22.92;16.25;;;4.90;99.90;;;;;;5017387;28;20033;-81
2021/12/26 05:15:29;;;;;;;18.80;15.13;;;4.90;99.90;;;;;;5017443;28;20026;-81
2021/12/26 05:17:55;;;;;;;25.50;18.60;;;5.00;99.90;;;;;;5017675;28;20470;-80
2021/12/26 05:20:23;;;;;;;25.17;16.85;;;5.10;99.90;;;;;;5017446;28;20080;-81
2021/12/26 05:22:50;;;;;;;23.67;16.30;;;5.10;99.90;;;;;;5017637;28;20018;-81
2021/12/26 05:25:17;;;;;;;21.88;15.98;;;5.10;99.90;;;;;;5017375;28;20439;-81
2021/12/26 05:27:43;;;;;;;25.50;17.17;;;5.10;99.90;;;;;;5015865;28;20028;-81
2021/12/26 05:30:14;;;;;;;24.40;16.83;;;5.20;99.90;;;;;;5016612;28;20040;-81
2021/12/26 05:32:41;;;;;;;17.92;13.73;;;5.20;99.90;;;;;;5016587;28;20025;-81
2021/12/26 05:35:08;;;;;;;25.92;19.33;;;5.20;99.90;;;;;;5015791;28;20073;-81
2021/12/26 05:37:34;;;;;;;30.10;20.25;;;5.30;99.90;;;;;;5017360;28;20478;-81
2021/12/26 05:40:03;;;;;;;30.60;22.60;;;5.30;99.90;;;;;;5017138;28;20044;-81
2021/12/26 05:42:29;;;;;;;29.67;20.50;;;5.30;99.90;;;;;;5017016;28;20022;-81
2021/12/26 05:44:55;;;;;;;27.02;20.30;;;5.30;99.90;;;;;;5017227;28;20030;-81
2021/12/26 05:47:21;;;;;;;28.58;21.48;;;5.30;99.90;;;;;;5016299;28;20521;-81
2021/12/26 05:49:47;;;;;;;25.40;20.88;;;5.40;99.90;;;;;;5017112;28;20088;-81
2021/12/26 05:52:13;;;;;;;30.63;22.23;;;5.40;99.90;;;;;;5017373;28;20026;-81
2021/12/26 05:54:39;;;;;;;24.70;20.65;;;5.40;99.90;;;;;;5015822;28;20447;-81
2021/12/26 05:57:06;;;;;;;27.48;20.45;;;5.40;99.90;;;;;;5026779;28;20022;-81
2021/12/26 05:59:32;;;;;;;27.85;21.52;;;5.40;99.90;;;;;;5035482;28;20120;-80
2021/12/26 06:01:58;;;;;;;26.58;19.75;;;5.40;99.90;;;;;;5036811;28;20045;-80
2021/12/26 06:04:24;;;;;;;29.52;19.88;;;5.40;99.90;;;;;;5035461;28;20060;-81
2021/12/26 06:06:51;;;;;;;26.75;19.25;;;5.40;99.90;;;;;;5036886;28;20053;-80
2021/12/26 06:09:17;;;;;;;29.90;20.70;;;5.40;99.90;;;;;;5035417;28;20493;-80
2021/12/26 06:11:43;;;;;;;31.15;20.85;;;5.40;99.90;;;;;;5035356;28;20021;-81
2021/12/26 06:14:08;;;;;;;29.58;20.20;;;5.40;99.90;;;;;;5038957;28;20029;-81
2021/12/26 06:16:34;;;;;;;23.40;18.63;;;5.40;99.90;;;;;;5039267;28;20040;-81
2021/12/26 06:19:00;;;;;;;25.73;20.27;;;5.40;99.90;;;;;;5036753;28;20044;-81
2021/12/26 06:21:26;;;;;;;24.45;19.25;;;5.30;99.90;;;;;;5052534;28;20029;-81
2021/12/26 06:23:52;;;;;;;28.48;20.83;;;5.30;99.90;;;;;;5052390;28;20038;-81
2021/12/26 06:26:19;;;;;;;28.52;19.80;;;5.20;99.90;;;;;;5020229;28;20026;-81
2021/12/26 06:28:45;;;;;;;23.58;18.60;;;5.10;99.90;;;;;;5020342;28;20081;-81
2021/12/26 06:31:11;;;;;;;26.23;18.00;;;5.10;99.90;;;;;;5020451;28;20029;-81
2021/12/26 06:33:38;;;;;;;25.58;18.95;;;5.10;99.90;;;;;;5019146;28;20449;-81
2021/12/26 06:36:05;;;;;;;25.27;18.40;;;5.00;99.90;;;;;;5020292;28;20085;-81
2021/12/26 06:38:34;;;;;;;23.38;17.77;;;5.00;99.90;;;;;;5020286;28;20494;-80
2021/12/26 06:41:01;;;;;;;27.25;16.70;;;5.00;99.90;;;;;;5018872;28;20121;-81
2021/12/26 06:43:27;;;;;;;21.58;16.23;;;5.00;99.90;;;;;;5019027;28;20075;-81
2021/12/26 06:45:53;;;;;;;21.48;16.63;;;5.10;99.90;;;;;;5019178;28;20034;-82
2021/12/26 06:48:20;;;;;;;22.40;16.08;;;5.10;99.90;;;;;;5018785;28;20048;-82
2021/12/26 06:50:47;;;;;;;23.63;17.40;;;5.10;99.90;;;;;;5018710;28;20041;-82
2021/12/26 06:53:13;;;;;;;23.10;17.23;;;5.20;99.90;;;;;;5019844;28;20014;-81
2021/12/26 06:55:39;;;;;;;28.65;20.13;;;5.20;99.90;;;;;;5019014;28;20032;-81
2021/12/26 06:58:06;;;;;;;30.45;22.13;;;5.20;99.90;;;;;;5019593;28;20026;-80
2021/12/26 07:00:32;;;;;;;29.10;19.70;;;5.30;99.90;;;;;;5019909;28;20026;-80
2021/12/26 07:02:58;;;;;;;23.90;18.83;;;5.30;99.90;;;;;;5018548;28;20024;-81
2021/12/26 07:05:24;;;;;;;25.30;18.05;;;5.30;99.90;;;;;;5019877;28;20540;-81
2021/12/26 07:07:50;;;;;;;23.33;16.92;;;5.30;99.90;;;;;;5019474;28;20034;-80
2021/12/26 07:10:17;;;;;;;22.80;16.63;;;5.30;99.90;;;;;;5019718;28;20030;-81
2021/12/26 07:12:44;;;;;;;22.67;17.35;;;5.30;99.90;;;;;;5019275;28;20022;-81
2021/12/26 07:15:10;;;;;;;17.40;15.35;;;5.30;99.90;;;;;;5018336;28;20026;-81
2021/12/26 07:17:36;;;;;;;22.05;16.45;;;5.30;99.90;;;;;;5018223;28;20026;-81
2021/12/26 07:20:03;;;;;;;23.98;17.30;;;5.30;99.90;;;;;;5018278;28;20037;-81
2021/12/26 07:22:29;;;;;;;22.70;17.40;;;5.40;99.90;;;;;;5019387;28;20029;-81
2021/12/26 07:24:55;;;;;;;23.17;16.77;;;5.40;99.90;;;;;;5018851;28;20058;-81
2021/12/26 07:27:22;;;;;;;24.60;18.08;;;5.40;99.90;;;;;;5018025;28;20026;-82
2021/12/26 07:29:48;;;;;;;26.50;18.33;;;5.40;99.90;;;;;;5018121;28;20124;-81
2021/12/26 07:32:14;;;;;;;24.08;18.10;;;5.50;99.90;;;;;;5019204;28;20060;-81
2021/12/26 07:34:40;;;;;;;23.02;17.92;;;5.50;99.90;;;;;;5017712;28;20026;-81
2021/12/26 07:37:07;;;;;;;22.40;17.10;;;5.60;99.90;;;;;;5019122;28;20433;-80
2021/12/26 07:39:32;;;;;;;26.45;18.27;;;5.60;99.90;;;;;;5019355;28;20109;-80
2021/12/26 07:41:58;;;;;;;21.08;17.75;;;5.60;99.90;;;;;;5013253;28;20046;-80
2021/12/26 07:44:24;;;;;;;23.02;18.48;;;5.70;99.90;;;;;;5011862;28;20032;-80
2021/12/26 07:46:51;;;;;;;24.17;19.13;;;5.70;99.90;;;;;;5018846;28;20026;-80
2021/12/26 07:49:17;;;;;;;29.13;17.75;;;5.80;99.90;;;;;;5019096;28;20026;-81
2021/12/26 07:51:44;;;;;;;25.02;18.25;;;5.80;99.90;;;;;;5017593;28;20029;-80
2021/12/26 07:54:13;;;;;;;21.55;18.17;;;5.90;99.90;;;;;;5018942;28;20033;-82
2021/12/26 07:56:39;;;;;;;24.50;18.13;;;5.90;99.90;;;;;;5018613;28;20022;-81
2021/12/26 07:59:05;;;;;;;21.65;17.75;;;6.00;99.90;;;;;;5018051;28;20371;-81
2021/12/26 08:01:31;;;;;;;22.00;17.25;;;6.00;99.90;;;;;;5016736;28;20156;-81
2021/12/26 08:04:00;;;;;;;20.83;17.02;;;6.10;99.90;;;;;;5018181;28;20061;-81
2021/12/26 08:06:26;;;;;;;21.05;16.50;;;6.10;99.90;;;;;;5016777;28;20371;-80
2021/12/26 08:08:52;;;;;;;23.17;17.05;;;6.20;99.90;;;;;;5018384;28;20049;-81
2021/12/26 08:11:18;;;;;;;22.48;17.55;;;6.20;99.90;;;;;;5018297;28;20026;-82
2021/12/26 08:13:45;;;;;;;22.48;17.80;;;6.30;99.90;;;;;;5005572;28;20062;-78
2021/12/26 08:16:10;;;;;;;21.30;17.25;;;6.30;99.90;;;;;;5018572;28;20482;-78
2021/12/26 08:18:36;;;;;;;23.60;17.63;;;6.40;99.90;;;;;;5018059;28;20060;-78
2021/12/26 08:21:03;;;;;;;19.75;15.85;;;6.50;99.90;;;;;;5017946;28;20094;-78
2021/12/26 08:23:28;;;;;;;20.40;17.45;;;6.50;99.90;;;;;;5016992;28;20030;-78
2021/12/26 08:25:55;;;;;;;19.33;16.70;;;6.50;99.90;;;;;;5016872;28;20037;-78
2021/12/26 08:28:21;;;;;;;20.55;16.30;;;6.60;99.90;;;;;;5018168;28;20022;-78
2021/12/26 08:30:47;;;;;;;23.70;16.98;;;6.60;99.90;;;;;;5016264;28;20041;-79
2021/12/26 08:33:14;;;;;;;23.88;17.63;;;6.60;99.90;;;;;;5017500;28;20026;-78
2021/12/26 08:35:43;;;;;;;20.63;16.73;;;6.70;99.90;;;;;;5017228;28;20010;-78
2021/12/26 08:38:09;;;;;;;20.38;15.43;;;6.80;99.90;;;;;;5016539;28;20046;-79
2021/12/26 08:40:35;;;;;;;26.98;16.13;;;6.80;99.90;;;;;;5017480;28;20029;-79
2021/12/26 08:43:01;;;;;;;19.35;16.45;;;6.80;99.90;;;;;;5017011;28;20076;-79
2021/12/26 08:45:27;;;;;;;24.05;16.85;;;6.90;99.90;;;;;;5017336;28;20830;-78
2021/12/26 08:47:55;;;;;;;22.63;16.63;;;6.90;99.90;;;;;;5017264;28;20014;-78
2021/12/26 08:50:22;;;;;;;18.52;16.30;;;7.00;99.90;;;;;;5017357;28;20033;-79
2021/12/26 08:52:49;;;;;;;22.55;16.90;;;6.90;99.90;;;;;;5013981;28;20484;-78
2021/12/26 08:55:15;;;;;;;20.05;16.25;;;7.00;99.90;;;;;;5017156;28;20029;-79
2021/12/26 08:57:41;;;;;;;20.88;15.65;;;7.10;99.90;;;;;;5016996;28;20014;-79
2021/12/26 09:00:09;;;;;;;19.25;15.73;;;7.20;99.90;;;;;;5016984;28;20024;-79
2021/12/26 09:02:36;;;;;;;20.42;16.00;;;7.30;99.90;;;;;;5016878;28;20438;-78
2021/12/26 09:05:02;;;;;;;19.55;15.00;;;7.40;99.90;;;;;;5049023;28;20096;-79
2021/12/26 09:07:28;;;;;;;20.35;16.25;;;7.40;99.90;;;;;;5017478;28;20084;-79
2021/12/26 09:09:55;;;;;;;18.60;15.48;;;7.50;99.90;;;;;;5016301;28;20033;-79
2021/12/26 09:12:21;;;;;;;18.73;14.88;;;7.60;99.90;;;;;;5017825;28;20418;-79
2021/12/26 09:14:47;;;;;;;15.73;13.90;;;7.70;99.90;;;;;;5037350;28;20082;-79
2021/12/26 09:17:13;;;;;;;45.03;40.17;;;7.80;99.90;;;;;;5035936;28;20481;-79
2021/12/26 09:19:39;;;;;;;24.02;19.70;;;7.80;99.90;;;;;;5048505;28;20061;-79
2021/12/26 09:22:07;;;;;;;21.13;16.63;;;7.80;99.90;;;;;;5014426;28;20065;-79
2021/12/26 09:24:33;;;;;;;22.00;15.98;;;7.90;99.90;;;;;;5015074;28;20041;-79
2021/12/26 09:26:59;;;;;;;20.85;16.13;;;8.00;99.90;;;;;;5016484;28;20520;-79
2021/12/26 09:29:25;;;;;;;21.88;18.77;;;8.10;99.90;;;;;;5048462;28;20080;-79
2021/12/26 09:31:53;;;;;;;66.43;60.03;;;8.10;99.90;;;;;;5016624;28;20018;-79
2021/12/26 09:34:20;;;;;;;32.30;28.92;;;8.20;99.90;;;;;;5016726;28;20441;-79
2021/12/26 09:36:46;;;;;;;24.42;21.02;;;8.30;99.90;;;;;;5045395;28;20028;-78
2021/12/26 09:39:12;;;;;;;23.38;19.25;;;8.30;99.90;;;;;;5010082;28;20030;-78
2021/12/26 09:41:38;;;;;;;21.27;16.10;;;8.40;99.90;;;;;;5015491;28;20022;-79
2021/12/26 09:44:05;;;;;;;24.90;19.70;;;8.50;99.90;;;;;;5016687;28;20091;-79
2021/12/26 09:46:32;;;;;;;23.35;18.88;;;8.50;99.90;;;;;;5016645;28;20581;-79
2021/12/26 09:48:58;;;;;;;28.83;22.63;;;8.60;99.90;;;;;;5018633;28;20067;-78
2021/12/26 09:51:25;;;;;;;24.30;18.70;;;8.70;99.90;;;;;;5020820;28;20022;-78
2021/12/26 09:53:51;;;;;;;27.48;20.15;;;8.60;99.90;;;;;;5018303;28;20029;-78
2021/12/26 09:56:18;;;;;;;23.40;19.38;;;8.70;99.90;;;;;;5018223;28;20026;-80
2021/12/26 09:59:05;;;;;;;25.60;19.25;;;8.70;99.90;;;;;;5020684;28;20018;-80
2021/12/26 10:01:40;;;;;;;23.63;17.88;;;8.80;99.90;;;;;;5019642;28;20025;-79
2021/12/26 10:04:18;;;;;;;22.77;19.25;;;8.90;99.90;;;;;;5019443;28;20029;-80
2021/12/26 10:06:45;;;;;;;25.15;19.13;;;9.00;99.90;;;;;;5021050;28;20057;-79
2021/12/26 10:09:12;;;;;;;22.80;17.80;;;9.10;99.90;;;;;;5020479;28;20053;-81
2021/12/26 10:11:41;;;;;;;24.25;18.80;;;9.20;99.90;;;;;;5017547;28;20037;-81
2021/12/26 10:14:10;;;;;;;22.77;18.45;;;9.50;99.90;;;;;;5016556;28;20540;-81
2021/12/26 10:16:39;;;;;;;19.67;15.60;;;9.70;99.90;;;;;;5020790;28;20025;-81
2021/12/26 10:19:06;;;;;;;18.63;15.38;;;9.90;99.90;;;;;;5015816;28;20105;-81
2021/12/26 10:21:37;;;;;;;21.15;13.30;;;10.00;99.90;;;;;;5012098;28;20025;-81
2021/12/26 10:24:17;;;;;;;14.82;11.95;;;10.20;99.90;;;;;;5020391;28;20087;-81
2021/12/26 10:26:50;;;;;;;16.23;12.20;;;10.30;99.90;;;;;;5018765;28;20030;-81
2021/12/26 10:29:19;;;;;;;14.70;11.82;;;10.40;99.90;;;;;;5019124;28;20030;-81
2021/12/26 10:31:56;;;;;;;14.23;11.73;;;10.60;99.90;;;;;;5019054;28;20030;-81
2021/12/26 10:34:43;;;;;;;11.52;9.45;;;10.70;99.90;;;;;;5020443;28;20030;-81
2021/12/26 10:37:19;;;;;;;11.98;9.93;;;10.90;99.90;;;;;;5018834;28;20018;-81
2021/12/26 10:39:55;;;;;;;11.25;9.15;;;11.00;99.90;;;;;;5019851;28;20076;-80
2021/12/26 10:42:30;;;;;;;12.70;9.52;;;11.20;99.90;;;;;;5019190;28;20011;-79
2021/12/26 10:45:02;;;;;;;11.75;9.93;;;11.40;99.90;;;;;;5019614;28;20105;-80
2021/12/26 10:47:31;;;;;;;13.55;7.93;;;11.40;99.90;;;;;;5051866;28;20025;-77
2021/12/26 10:50:07;;;;;;;10.30;6.20;;;11.50;99.90;;;;;;5019954;28;20683;-78
2021/12/26 10:52:38;;;;;;;4.70;4.10;;;11.50;99.90;;;;;;5020132;28;20024;-78
2021/12/26 10:55:16;;;;;;;7.18;5.70;;;11.60;99.90;;;;;;5019936;28;20033;-78
2021/12/26 10:57:50;;;;;;;8.25;5.25;;;11.60;99.90;;;;;;5018157;28;20394;-78
2021/12/26 11:00:30;;;;;;;6.10;5.03;;;11.80;99.90;;;;;;5018868;28;20489;-78
2021/12/26 11:03:03;;;;;;;7.60;5.13;;;11.80;99.90;;;;;;5019711;28;20505;-78
2021/12/26 11:05:43;;;;;;;8.82;5.40;;;11.90;99.90;;;;;;5019816;28;20021;-78
2021/12/26 11:08:12;;;;;;;7.68;5.63;;;11.90;99.90;;;;;;5019645;28;20138;-78
2021/12/26 11:10:50;;;;;;;7.40;4.32;;;12.00;99.90;;;;;;5019415;28;20080;-78
2021/12/26 11:13:22;;;;;;;6.35;3.83;;;12.10;99.90;;;;;;5018143;28;20026;-78
2021/12/26 11:15:49;;;;;;;5.65;3.92;;;12.10;99.90;;;;;;5019473;28;20030;-79
2021/12/26 11:18:17;;;;;;;13.07;5.30;;;12.20;99.90;;;;;;5017682;28;20078;-77
2021/12/26 11:20:53;;;;;;;15.60;10.65;;;12.30;99.90;;;;;;5013621;28;20022;-78
2021/12/26 11:23:24;;;;;;;9.27;5.20;;;12.30;99.90;;;;;;5019065;28;20045;-78
2021/12/26 11:25:54;;;;;;;11.68;8.18;;;12.40;99.90;;;;;;5050866;28;20482;-78
2021/12/26 11:28:26;;;;;;;15.73;9.75;;;12.50;99.90;;;;;;5019291;28;20022;-77
2021/12/26 11:31:01;;;;;;;46.95;28.67;;;12.60;99.90;;;;;;5018184;28;20429;-78
2021/12/26 11:33:28;;;;;;;41.33;24.77;;;12.60;99.90;;;;;;5019589;28;20065;-78
2021/12/26 11:35:54;;;;;;;9.52;5.53;;;12.70;99.90;;;;;;5017949;28;20493;-78
2021/12/26 11:38:22;;;;;;;11.95;6.95;;;12.70;99.90;;;;;;5016112;28;20022;-78
2021/12/26 11:40:55;;;;;;;20.67;10.73;;;12.60;99.90;;;;;;5014043;28;20030;-79
2021/12/26 11:43:39;;;;;;;8.95;5.68;;;12.70;99.90;;;;;;5018492;28;20018;-78
2021/12/26 11:46:36;;;;;;;8.20;5.32;;;12.70;99.90;;;;;;5018998;28;20466;-78
2021/12/26 11:49:38;;;;;;;11.98;6.78;;;12.80;99.90;;;;;;5009685;28;20402;-79
2021/12/26 11:52:13;;;;;;;11.73;6.05;;;12.90;99.90;;;;;;5017583;28;20034;-78
2021/12/26 11:55:12;;;;;;;10.10;5.22;;;12.80;99.90;;;;;;5018694;28;20057;-78
2021/12/26 11:57:57;;;;;;;11.48;6.88;;;12.80;99.90;;;;;;5018174;28;20026;-78
2021/12/26 12:00:27;;;;;;;10.10;5.85;;;13.00;99.90;;;;;;5018708;28;20021;-78
2021/12/26 12:02:55;;;;;;;7.63;5.50;;;13.10;99.90;;;;;;5018504;28;20128;-77
2021/12/26 12:05:25;;;;;;;8.20;5.53;;;13.10;99.90;;;;;;5018695;28;20034;-78
2021/12/26 12:07:58;;;;;;;16.02;6.57;;;13.30;99.90;;;;;;5018605;28;20506;-78
2021/12/26 12:10:33;;;;;;;10.35;5.63;;;13.40;99.90;;;;;;5018552;28;20057;-78
2021/12/26 12:12:59;;;;;;;8.77;4.82;;;13.40;99.90;;;;;;5018154;28;20030;-78
2021/12/26 12:15:56;;;;;;;4.93;4.00;;;13.30;99.90;;;;;;5018419;28;20429;-79
2021/12/26 12:18:34;;;;;;;6.20;4.97;;;13.20;99.90;;;;;;5017046;28;20462;-78
2021/12/26 12:21:18;;;;;;;11.77;5.38;;;13.20;99.90;;;;;;5018459;28;20054;-77
2021/12/26 12:24:03;;;;;;;7.30;4.55;;;13.20;99.90;;;;;;5018012;28;20414;-77
2021/12/26 12:26:54;;;;;;;9.65;5.32;;;13.20;99.90;;;;;;5006465;28;20128;-77
2021/12/26 12:29:29;;;;;;;8.00;4.65;;;13.20;99.90;;;;;;5016116;28;20022;-79
2021/12/26 12:32:06;;;;;;;7.90;4.40;;;13.20;99.90;;;;;;5017140;28;20026;-78
2021/12/26 12:34:52;;;;;;;6.78;3.90;;;13.10;99.90;;;;;;5017170;28;20081;-78
2021/12/26 12:37:45;;;;;;;7.90;4.38;;;13.10;99.90;;;;;;5017074;28;20042;-78
2021/12/26 12:40:26;;;;;;;9.32;4.28;;;13.00;99.90;;;;;;5013899;28;20080;-77
2021/12/26 12:43:15;;;;;;;5.18;3.85;;;13.00;99.90;;;;;;5015746;28;20041;-78
2021/12/26 12:45:53;;;;;;;5.72;3.38;;;13.00;99.90;;;;;;5015954;28;20080;-77
2021/12/26 12:48:24;;;;;;;9.40;4.70;;;12.90;99.90;;;;;;5017342;28;20018;-78